Time;durP1;ratioP1;P1;durP2;ratioP2;P2;SDS_P1;SDS_P2;PMS_P1;PMS_P2;Temp;Humidity;BMP_temperature;BMP_pressure;BME280_temperature;BME280_humidity;BME280_pressure;Samples;Min_cycle;Max_cycle;Signal;HPM_P1;HPM_P2
2023/12/09 04:03:05;;;;;;;4.00;3.70;;;23.70;25.20;;;;;;4941560;28;45716;-84
2023/12/09 04:05:31;;;;;;;3.75;3.45;;;23.70;25.20;;;;;;4929527;28;45750;-80
2023/12/09 04:07:56;;;;;;;3.77;3.47;;;23.70;25.20;;;;;;4940112;28;44717;-85
2023/12/09 04:10:22;;;;;;;3.40;3.10;;;23.70;25.20;;;;;;4933077;28;46360;-83
2023/12/09 04:12:51;;;;;;;3.58;3.28;;;23.70;25.20;;;;;;4959236;28;45192;-83
2023/12/09 04:15:16;;;;;;;3.50;3.20;;;23.70;25.30;;;;;;4944631;28;45549;-88
2023/12/09 04:17:44;;;;;;;3.47;3.17;;;23.70;25.30;;;;;;4894420;28;45584;-82
2023/12/09 04:20:10;;;;;;;3.70;3.40;;;23.60;25.20;;;;;;4939796;28;45641;-85
2023/12/09 04:22:39;;;;;;;3.80;3.50;;;23.60;25.20;;;;;;4931826;28;45426;-83
2023/12/09 04:25:06;;;;;;;3.40;3.10;;;23.70;25.30;;;;;;4933506;28;45518;-91
2023/12/09 04:27:33;;;;;;;4.18;3.47;;;23.60;25.20;;;;;;4906003;28;44985;-85
2023/12/09 04:30:00;;;;;;;3.55;3.22;;;23.60;25.30;;;;;;4954670;28;45423;-85
2023/12/09 04:32:31;;;;;;;3.67;3.38;;;23.70;25.30;;;;;;4925016;28;45108;-89
2023/12/09 04:34:57;;;;;;;3.60;3.30;;;23.60;25.30;;;;;;4909353;28;45466;-81
2023/12/09 04:37:23;;;;;;;3.80;3.40;;;23.60;25.30;;;;;;4918932;28;45296;-83
2023/12/09 04:39:49;;;;;;;3.80;3.47;;;23.60;25.30;;;;;;4957620;28;46983;-84
2023/12/09 04:42:16;;;;;;;3.70;3.40;;;23.60;25.40;;;;;;4931739;28;45263;-79
2023/12/09 04:44:45;;;;;;;3.70;3.40;;;23.60;25.30;;;;;;4961025;28;45267;-80
2023/12/09 04:47:11;;;;;;;4.07;3.47;;;23.60;25.30;;;;;;4930617;28;44860;-86
2023/12/09 04:49:37;;;;;;;3.80;3.40;;;23.60;25.30;;;;;;4915425;28;45907;-87
2023/12/09 04:52:04;;;;;;;3.50;3.20;;;23.60;25.30;;;;;;4930527;28;45414;-81
2023/12/09 04:54:30;;;;;;;3.35;3.05;;;23.60;25.30;;;;;;4949568;28;45487;-81
2023/12/09 04:56:56;;;;;;;3.83;3.53;;;23.60;25.40;;;;;;4958729;28;45407;-84
2023/12/09 04:59:22;;;;;;;3.40;3.10;;;23.60;25.40;;;;;;4961741;28;45977;-79
2023/12/09 05:01:49;;;;;;;3.90;3.50;;;23.50;25.30;;;;;;4937721;28;45020;-82
2023/12/09 05:04:16;;;;;;;3.60;3.30;;;23.50;25.30;;;;;;4950321;28;45870;-81
2023/12/09 05:06:43;;;;;;;3.42;3.13;;;23.50;25.40;;;;;;4957729;28;45808;-84
2023/12/09 05:09:10;;;;;;;3.42;3.13;;;23.50;25.40;;;;;;4939378;28;45451;-88
2023/12/09 05:11:36;;;;;;;3.85;3.45;;;23.50;25.40;;;;;;4961422;28;45055;-79
2023/12/09 05:14:02;;;;;;;3.90;3.50;;;23.50;25.30;;;;;;4956795;28;45005;-82
2023/12/09 05:16:32;;;;;;;3.53;3.22;;;23.50;25.40;;;;;;4962708;28;45357;-91
2023/12/09 05:18:57;;;;;;;3.60;3.22;;;23.50;25.40;;;;;;4945831;28;45433;-79
2023/12/09 05:21:24;;;;;;;3.83;3.40;;;23.50;25.40;;;;;;4928946;28;44923;-85
2023/12/09 05:23:50;;;;;;;3.47;3.17;;;23.50;25.40;;;;;;4960876;28;44722;-82
2023/12/09 05:26:22;;;;;;;3.50;3.20;;;23.50;25.40;;;;;;4922471;28;45731;-81
2023/12/09 05:28:52;;;;;;;3.88;3.30;;;23.50;25.40;;;;;;4944015;28;46024;-85
2023/12/09 05:31:18;;;;;;;3.80;3.50;;;23.50;25.40;;;;;;4940205;28;45184;-83
2023/12/09 05:33:45;;;;;;;3.67;3.30;;;23.40;25.40;;;;;;4937241;28;44818;-79
2023/12/09 05:36:10;;;;;;;3.50;3.20;;;23.40;25.40;;;;;;4916320;28;45253;-79
2023/12/09 05:38:37;;;;;;;3.67;3.37;;;23.40;25.40;;;;;;4958477;28;45262;-82
2023/12/09 05:41:06;;;;;;;3.63;3.33;;;23.40;25.40;;;;;;4926291;28;45063;-85
2023/12/09 05:43:32;;;;;;;3.40;3.10;;;23.40;25.40;;;;;;4937819;28;44888;-85
2023/12/09 05:45:58;;;;;;;3.40;3.08;;;23.40;25.40;;;;;;4916081;28;45150;-86
2023/12/09 05:48:24;;;;;;;3.40;3.10;;;23.40;25.50;;;;;;4891644;28;46192;-83
2023/12/09 05:50:49;;;;;;;3.40;3.10;;;23.40;25.50;;;;;;4934927;28;45200;-79
2023/12/09 05:53:15;;;;;;;3.30;2.97;;;23.40;25.50;;;;;;4912526;28;45066;-82
2023/12/09 05:55:41;;;;;;;3.53;3.08;;;23.40;25.50;;;;;;4956662;28;45062;-80
2023/12/09 05:58:06;;;;;;;4.47;3.40;;;23.40;25.50;;;;;;4934208;28;45366;-80
2023/12/09 06:00:34;;;;;;;3.67;3.25;;;23.40;25.50;;;;;;4914254;28;63654;-82
2023/12/09 06:03:00;;;;;;;3.50;3.20;;;23.30;25.50;;;;;;4944002;28;45615;-85
2023/12/09 06:05:25;;;;;;;3.40;3.10;;;23.30;25.50;;;;;;4933047;28;45199;-87
2023/12/09 06:07:52;;;;;;;3.83;3.30;;;23.30;25.50;;;;;;4928529;28;45466;-83
2023/12/09 06:10:19;;;;;;;3.25;2.67;;;23.30;25.50;;;;;;4931625;28;45241;-84
2023/12/09 06:12:49;;;;;;;3.25;2.95;;;23.30;25.50;;;;;;4904624;28;45523;-83
2023/12/09 06:15:21;;;;;;;3.33;3.03;;;23.30;25.50;;;;;;4930135;28;44769;-80
2023/12/09 06:17:47;;;;;;;3.35;3.05;;;23.30;25.50;;;;;;4941692;28;46602;-81
2023/12/09 06:20:13;;;;;;;3.35;2.88;;;23.30;25.50;;;;;;4944489;28;45158;-83
2023/12/09 06:22:39;;;;;;;3.20;2.90;;;23.30;25.60;;;;;;4955650;28;45510;-80
2023/12/09 06:25:08;;;;;;;3.40;3.10;;;23.30;25.50;;;;;;4941434;28;45813;-87
2023/12/09 06:27:36;;;;;;;3.20;2.90;;;23.30;25.60;;;;;;4913569;28;46516;-79
2023/12/09 06:30:09;;;;;;;3.30;3.00;;;23.30;25.60;;;;;;4914119;28;45213;-79
2023/12/09 06:32:35;;;;;;;3.03;2.83;;;23.30;25.60;;;;;;4912401;28;45614;-80
2023/12/09 06:35:01;;;;;;;3.30;3.00;;;23.30;25.60;;;;;;4916511;28;45771;-83
2023/12/09 06:37:27;;;;;;;3.10;2.80;;;23.20;25.50;;;;;;4901376;28;46275;-87
2023/12/09 06:39:56;;;;;;;3.30;3.00;;;23.20;25.60;;;;;;4906816;28;45147;-82
2023/12/09 06:42:22;;;;;;;2.75;2.45;;;23.30;25.60;;;;;;4924330;28;45486;-80
2023/12/09 06:44:50;;;;;;;3.08;2.80;;;23.20;25.60;;;;;;4937943;28;45595;-88
2023/12/09 06:47:19;;;;;;;3.10;2.80;;;23.20;25.60;;;;;;4937624;28;46722;-79
2023/12/09 06:49:45;;;;;;;2.70;2.50;;;23.20;25.60;;;;;;4902378;28;45331;-81
2023/12/09 06:52:21;;;;;;;3.10;2.80;;;23.20;25.60;;;;;;4916788;28;45276;-79
2023/12/09 06:54:47;;;;;;;3.37;2.80;;;23.20;26.10;;;;;;4942428;28;45634;-81
2023/12/09 06:57:13;;;;;;;3.10;2.90;;;23.20;25.60;;;;;;4913088;28;45745;-82
2023/12/09 06:59:41;;;;;;;2.80;2.60;;;23.20;25.60;;;;;;4956800;28;44786;-81
2023/12/09 07:02:06;;;;;;;3.25;2.95;;;23.20;25.60;;;;;;4920126;28;45194;-82
2023/12/09 07:04:35;;;;;;;3.20;2.53;;;23.20;25.60;;;;;;4896426;28;45296;-79
2023/12/09 07:07:06;;;;;;;2.93;2.73;;;23.10;25.60;;;;;;4922609;28;45428;-90
2023/12/09 07:09:31;;;;;;;2.70;2.50;;;23.20;25.60;;;;;;4882839;28;45871;-82
2023/12/09 07:11:57;;;;;;;2.83;2.63;;;23.10;25.60;;;;;;4881931;28;46001;-80
2023/12/09 07:14:22;;;;;;;2.78;2.58;;;23.10;25.70;;;;;;4889319;28;45251;-79
2023/12/09 07:16:48;;;;;;;2.75;2.55;;;23.10;25.60;;;;;;4907255;28;46866;-84
2023/12/09 07:19:14;;;;;;;2.97;2.38;;;23.20;25.70;;;;;;4923397;28;44641;-79
2023/12/09 07:21:40;;;;;;;2.72;2.53;;;23.10;25.70;;;;;;4911679;28;45137;-80
2023/12/09 07:24:06;;;;;;;3.17;2.50;;;23.10;25.70;;;;;;4900848;28;45207;-79
2023/12/09 07:26:31;;;;;;;2.80;2.50;;;23.10;25.70;;;;;;4908709;28;46774;-83
2023/12/09 07:29:03;;;;;;;3.50;2.70;;;23.10;25.70;;;;;;4927735;28;45233;-86
2023/12/09 07:31:29;;;;;;;2.63;2.42;;;23.10;25.70;;;;;;4892978;28;45308;-81
2023/12/09 07:33:56;;;;;;;3.10;2.45;;;23.10;25.80;;;;;;4915084;28;45502;-83
2023/12/09 07:36:22;;;;;;;2.60;2.40;;;23.10;25.70;;;;;;4905934;28;45424;-84
2023/12/09 07:38:49;;;;;;;2.73;2.53;;;23.00;25.70;;;;;;4911722;28;45526;-80
2023/12/09 07:41:17;;;;;;;3.35;2.92;;;23.10;25.70;;;;;;4923422;28;45248;-83
2023/12/09 07:43:43;;;;;;;3.00;2.70;;;23.10;25.80;;;;;;4908972;28;45435;-83
2023/12/09 07:46:09;;;;;;;3.03;2.72;;;23.10;25.70;;;;;;4923139;28;45618;-79
2023/12/09 07:48:36;;;;;;;2.83;2.60;;;23.00;25.70;;;;;;4883952;28;45796;-79
2023/12/09 07:51:03;;;;;;;2.95;2.60;;;23.00;25.70;;;;;;4899727;28;45758;-87
2023/12/09 07:53:29;;;;;;;2.83;2.63;;;23.00;25.70;;;;;;4899756;28;44778;-79
2023/12/09 07:55:55;;;;;;;3.00;2.70;;;23.00;25.80;;;;;;4884984;28;46984;-83
2023/12/09 07:58:22;;;;;;;2.83;2.60;;;23.00;25.80;;;;;;4888227;28;45152;-78
2023/12/09 08:00:48;;;;;;;2.72;2.50;;;23.00;25.80;;;;;;4911095;28;45114;-85
2023/12/09 08:03:14;;;;;;;3.00;2.70;;;23.00;25.80;;;;;;4937263;28;45013;-79
2023/12/09 08:05:40;;;;;;;3.00;2.70;;;23.00;25.80;;;;;;4931079;28;47043;-78
2023/12/09 08:08:06;;;;;;;3.27;2.77;;;23.00;25.80;;;;;;4901150;28;45305;-86
2023/12/09 08:10:32;;;;;;;2.80;2.60;;;22.90;25.80;;;;;;4948622;28;44870;-81
2023/12/09 08:12:58;;;;;;;3.57;2.70;;;22.90;25.80;;;;;;4920113;28;44866;-82
2023/12/09 08:15:25;;;;;;;2.85;2.55;;;22.90;25.80;;;;;;4906926;28;45430;-80
2023/12/09 08:17:54;;;;;;;3.00;2.70;;;22.90;25.80;;;;;;4933396;28;45464;-78
2023/12/09 08:20:20;;;;;;;2.65;2.45;;;22.90;25.80;;;;;;4945121;28;45370;-79
2023/12/09 08:22:51;;;;;;;2.70;2.40;;;22.90;25.90;;;;;;4933404;28;45554;-81
2023/12/09 08:25:17;;;;;;;2.80;2.60;;;22.90;25.80;;;;;;4932613;28;45287;-85
2023/12/09 08:27:44;;;;;;;3.10;2.80;;;22.90;25.90;;;;;;4935226;28;45271;-82
2023/12/09 08:34:38;;;;;;;3.20;2.90;;;22.90;25.90;;;;;;4900524;28;45585;-82
2023/12/09 08:45:45;;;;;;;2.80;2.60;;;22.90;25.90;;;;;;4922513;28;45277;-86
2023/12/09 08:49:43;;;;;;;3.00;2.70;;;22.80;25.90;;;;;;4777458;29;45453;-79
2023/12/09 08:52:49;;;;;;;2.60;2.40;;;22.80;25.90;;;;;;4734934;29;45419;-83
2023/12/09 08:55:19;;;;;;;2.90;2.60;;;22.80;26.00;;;;;;4668392;29;45605;-83
2023/12/09 08:57:51;;;;;;;2.70;2.50;;;22.80;26.00;;;;;;4795421;29;45266;-80
2023/12/09 09:00:25;;;;;;;2.95;2.65;;;22.80;26.00;;;;;;4930830;28;45459;-91
2023/12/09 09:03:25;;;;;;;3.00;2.75;;;22.80;26.00;;;;;;4930189;28;45402;-79
2023/12/09 09:05:54;;;;;;;3.20;2.92;;;22.80;26.00;;;;;;4959028;28;45633;-79
2023/12/09 09:08:20;;;;;;;2.80;2.60;;;22.70;26.00;;;;;;4928118;28;45316;-82
2023/12/09 09:10:48;;;;;;;2.78;2.58;;;22.80;26.10;;;;;;4942740;28;45254;-82
2023/12/09 09:13:42;;;;;;;2.85;2.55;;;22.70;26.00;;;;;;4943786;28;45506;-83
2023/12/09 09:16:27;;;;;;;2.87;2.57;;;22.70;26.00;;;;;;4958292;28;45353;-81
2023/12/09 09:19:21;;;;;;;2.90;2.60;;;22.70;26.10;;;;;;4918290;28;45848;-86
2023/12/09 09:22:35;;;;;;;2.80;2.60;;;22.70;26.10;;;;;;4944072;28;44746;-80
2023/12/09 09:25:47;;;;;;;2.50;2.30;;;22.70;26.10;;;;;;4864607;29;45220;-84
2023/12/09 09:28:15;;;;;;;2.83;2.63;;;22.70;26.10;;;;;;4897474;28;45635;-88
2023/12/09 09:30:49;;;;;;;2.95;2.65;;;22.70;26.10;;;;;;4931762;28;45004;-83
2023/12/09 09:33:33;;;;;;;3.22;2.90;;;22.70;26.10;;;;;;4907425;28;45535;-85
2023/12/09 09:36:32;;;;;;;2.72;2.40;;;22.70;26.20;;;;;;4958484;28;46810;-82
2023/12/09 09:39:17;;;;;;;3.00;2.70;;;22.70;26.20;;;;;;4926647;28;45532;-81
2023/12/09 09:42:21;;;;;;;3.10;2.63;;;22.60;26.20;;;;;;4943848;28;45348;-82
2023/12/09 09:45:11;;;;;;;3.00;2.70;;;22.70;26.20;;;;;;4961656;28;44812;-81
2023/12/09 09:47:42;;;;;;;2.60;2.40;;;22.60;26.70;;;;;;4939330;28;46175;-90
2023/12/09 09:50:27;;;;;;;2.95;2.50;;;22.60;26.20;;;;;;4949851;28;44728;-84
2023/12/09 09:54:15;;;;;;;2.70;2.50;;;22.60;26.20;;;;;;4936209;28;44921;-86
2023/12/09 09:56:43;;;;;;;3.22;2.78;;;22.60;26.30;;;;;;4895567;28;45090;-80
2023/12/09 09:59:10;;;;;;;2.90;2.60;;;22.60;26.30;;;;;;4910532;28;47937;-85
2023/12/09 10:01:37;;;;;;;3.45;2.70;;;22.60;26.30;;;;;;4938700;28;45978;-83
2023/12/09 10:04:04;;;;;;;3.00;2.67;;;22.60;26.30;;;;;;4928426;28;45924;-81
2023/12/09 10:06:31;;;;;;;3.10;2.75;;;22.60;26.30;;;;;;4930292;28;45385;-80
2023/12/09 10:08:57;;;;;;;2.80;2.60;;;22.50;26.30;;;;;;4910264;28;46057;-83
2023/12/09 10:11:23;;;;;;;3.33;2.90;;;22.50;26.30;;;;;;4944144;28;45559;-81
2023/12/09 10:13:48;;;;;;;3.13;2.63;;;22.60;26.40;;;;;;4940367;28;45469;-82
2023/12/09 10:16:14;;;;;;;3.07;2.77;;;22.50;26.30;;;;;;4913034;28;46035;-80
2023/12/09 10:18:46;;;;;;;3.00;2.50;;;22.50;26.30;;;;;;4964718;28;45566;-84
2023/12/09 10:21:13;;;;;;;2.83;2.60;;;22.50;26.30;;;;;;4940448;28;45499;-81
2023/12/09 10:23:40;;;;;;;3.45;2.80;;;22.50;26.40;;;;;;4958411;28;44999;-81
2023/12/09 10:26:06;;;;;;;2.90;2.60;;;22.50;26.40;;;;;;4924819;28;44753;-85
2023/12/09 10:28:33;;;;;;;3.05;2.40;;;22.50;26.40;;;;;;4939569;28;45367;-85
2023/12/09 10:31:00;;;;;;;2.67;2.30;;;22.50;26.40;;;;;;4919949;28;45385;-84
2023/12/09 10:33:26;;;;;;;2.50;2.30;;;22.50;26.40;;;;;;4922858;28;45295;-86
2023/12/09 10:35:52;;;;;;;2.95;2.38;;;22.50;26.50;;;;;;4937162;28;45318;-86
2023/12/09 10:38:19;;;;;;;2.72;2.42;;;22.50;26.50;;;;;;4953548;28;45320;-84
2023/12/09 10:40:45;;;;;;;2.65;2.45;;;22.50;26.60;;;;;;4920737;28;44706;-87
2023/12/09 10:43:12;;;;;;;2.78;2.35;;;22.50;26.50;;;;;;4940169;28;45557;-84
2023/12/09 10:45:38;;;;;;;2.58;2.38;;;22.50;26.60;;;;;;4936066;28;45560;-82
2023/12/09 10:48:04;;;;;;;3.53;2.53;;;22.50;27.10;;;;;;4946500;28;46360;-83
2023/12/09 10:50:30;;;;;;;2.90;2.40;;;22.40;26.60;;;;;;4914084;28;44922;-85
2023/12/09 10:52:56;;;;;;;2.93;2.43;;;22.40;26.60;;;;;;4914808;28;44805;-83
2023/12/09 10:55:22;;;;;;;2.58;2.38;;;22.40;26.60;;;;;;4935009;28;45260;-83
2023/12/09 10:57:49;;;;;;;2.97;2.67;;;22.40;26.60;;;;;;4961918;28;45564;-87
2023/12/09 11:00:16;;;;;;;2.50;2.30;;;22.40;26.60;;;;;;4949428;28;45933;-85
2023/12/09 11:02:42;;;;;;;2.87;2.50;;;22.40;26.60;;;;;;4961811;28;45167;-81
2023/12/09 11:05:11;;;;;;;2.88;2.33;;;22.40;26.70;;;;;;4947985;28;45670;-87
2023/12/09 11:07:40;;;;;;;2.80;2.50;;;22.40;26.70;;;;;;4931619;28;46222;-80
2023/12/09 11:10:06;;;;;;;2.40;2.20;;;22.40;26.70;;;;;;4946815;28;45864;-81
2023/12/09 11:12:32;;;;;;;2.67;2.20;;;22.40;26.70;;;;;;4927302;28;45331;-86
2023/12/09 11:15:13;;;;;;;2.60;2.37;;;22.40;26.70;;;;;;4943064;28;45220;-81
2023/12/09 11:17:47;;;;;;;2.25;2.05;;;22.40;26.70;;;;;;4960974;28;45946;-80
2023/12/09 11:20:16;;;;;;;2.20;2.00;;;22.40;26.70;;;;;;4944616;28;45469;-89
2023/12/09 11:22:43;;;;;;;2.40;2.20;;;22.30;26.70;;;;;;4912003;28;45372;-82
2023/12/09 11:25:23;;;;;;;2.63;2.10;;;22.40;26.80;;;;;;4913799;28;45237;-91
2023/12/09 11:27:50;;;;;;;2.30;2.10;;;22.30;26.80;;;;;;4946537;28;46397;-82
2023/12/09 11:30:33;;;;;;;2.70;2.50;;;22.30;26.80;;;;;;4929706;28;44871;-83
2023/12/09 11:32:59;;;;;;;2.53;2.13;;;22.30;26.80;;;;;;4947713;28;45675;-83
2023/12/09 11:35:31;;;;;;;2.37;2.00;;;22.30;26.80;;;;;;4902202;28;45590;-87
2023/12/09 11:37:59;;;;;;;2.00;1.80;;;22.30;26.80;;;;;;4960504;28;46533;-81
2023/12/09 11:40:27;;;;;;;2.20;2.00;;;22.30;26.90;;;;;;4902144;28;45466;-83
2023/12/09 11:42:54;;;;;;;2.40;2.03;;;22.30;26.90;;;;;;4898629;28;45194;-86
2023/12/09 11:45:21;;;;;;;1.80;1.70;;;22.30;26.90;;;;;;4930880;28;45274;-84
2023/12/09 11:47:48;;;;;;;2.20;2.00;;;22.30;26.90;;;;;;4947449;28;47332;-81
2023/12/09 11:50:16;;;;;;;2.22;2.03;;;22.20;26.90;;;;;;4929721;28;45775;-81
2023/12/09 11:52:43;;;;;;;2.20;1.73;;;22.20;26.90;;;;;;4944583;28;45219;-81
2023/12/09 11:55:10;;;;;;;1.70;1.60;;;22.20;27.00;;;;;;4919235;28;44707;-82
2023/12/09 11:57:35;;;;;;;1.90;1.73;;;22.20;27.00;;;;;;4943360;28;46281;-83
2023/12/09 12:00:06;;;;;;;2.28;1.92;;;22.20;27.00;;;;;;4949520;28;45458;-81
2023/12/09 12:02:33;;;;;;;2.13;1.93;;;22.20;27.10;;;;;;4940141;28;45070;-80
2023/12/09 12:04:58;;;;;;;2.40;1.90;;;22.20;27.10;;;;;;4931504;28;45158;-82
2023/12/09 12:07:25;;;;;;;1.80;1.70;;;22.20;27.10;;;;;;4944903;28;45687;-82
2023/12/09 12:09:51;;;;;;;1.70;1.60;;;22.20;27.10;;;;;;4961061;28;45163;-81
2023/12/09 12:12:17;;;;;;;2.00;1.70;;;22.20;27.10;;;;;;4942979;28;45373;-81
2023/12/09 12:14:44;;;;;;;2.13;1.88;;;22.20;27.10;;;;;;4930931;28;45252;-80
2023/12/09 12:17:09;;;;;;;1.52;1.42;;;22.20;27.10;;;;;;4942337;28;45113;-80
2023/12/09 12:19:35;;;;;;;1.70;1.60;;;22.20;27.20;;;;;;4942859;28;45322;-81
2023/12/09 12:22:01;;;;;;;1.60;1.50;;;22.20;27.20;;;;;;4937801;28;45544;-82
2023/12/09 12:24:27;;;;;;;1.58;1.48;;;22.20;27.20;;;;;;4930761;28;45511;-85
2023/12/09 12:26:59;;;;;;;1.70;1.50;;;22.20;27.20;;;;;;4930119;28;46461;-85
2023/12/09 12:29:26;;;;;;;1.60;1.40;;;22.20;27.20;;;;;;4936835;28;46100;-81
2023/12/09 12:31:55;;;;;;;1.40;1.30;;;22.20;27.20;;;;;;4957392;28;45219;-86
2023/12/09 12:34:22;;;;;;;1.55;1.45;;;22.10;27.20;;;;;;4918091;28;46799;-81
2023/12/09 12:36:48;;;;;;;1.75;1.45;;;22.10;27.20;;;;;;4942190;28;45830;-82
2023/12/09 12:39:15;;;;;;;1.83;1.55;;;22.10;27.20;;;;;;4959776;28;45236;-85
2023/12/09 12:41:40;;;;;;;1.50;1.37;;;22.10;27.30;;;;;;4925202;28;45979;-81
2023/12/09 12:44:06;;;;;;;1.67;1.30;;;22.10;27.30;;;;;;4945284;28;45924;-81
2023/12/09 12:46:32;;;;;;;1.58;1.40;;;22.10;27.30;;;;;;4927383;28;45629;-84
2023/12/09 12:48:57;;;;;;;1.30;1.20;;;22.10;27.30;;;;;;4943689;28;45177;-80
2023/12/09 12:51:24;;;;;;;1.50;1.40;;;22.10;27.30;;;;;;4912016;28;45983;-80
2023/12/09 12:53:50;;;;;;;1.85;1.50;;;22.10;27.30;;;;;;4928108;28;45965;-80
2023/12/09 12:56:16;;;;;;;1.65;1.38;;;22.00;27.30;;;;;;4944312;28;45305;-80
2023/12/09 12:58:43;;;;;;;1.70;1.60;;;22.10;27.40;;;;;;4959501;28;44907;-83
2023/12/09 13:01:09;;;;;;;1.52;1.42;;;22.10;27.40;;;;;;4937967;28;45514;-85
2023/12/09 13:03:34;;;;;;;1.80;1.40;;;22.00;27.40;;;;;;4924898;28;45426;-87
2023/12/09 13:06:00;;;;;;;2.40;1.50;;;22.00;27.50;;;;;;4956312;28;46735;-81
2023/12/09 13:08:26;;;;;;;1.70;1.60;;;22.00;27.50;;;;;;4933524;28;45318;-84
2023/12/09 13:10:53;;;;;;;1.85;1.50;;;22.00;27.60;;;;;;4951343;28;45360;-80
2023/12/09 13:13:18;;;;;;;1.73;1.50;;;22.00;27.60;;;;;;4962834;28;45498;-82
2023/12/09 13:15:44;;;;;;;2.33;1.60;;;22.00;27.60;;;;;;4958586;28;45339;-82
2023/12/09 13:18:12;;;;;;;1.80;1.50;;;22.00;27.70;;;;;;4961758;28;45292;-81
2023/12/09 13:20:39;;;;;;;1.98;1.73;;;21.90;27.70;;;;;;4942147;28;45292;-80
2023/12/09 13:23:04;;;;;;;3.03;1.73;;;21.90;28.20;;;;;;4942893;28;45029;-80
2023/12/09 13:25:32;;;;;;;1.70;1.60;;;22.00;27.80;;;;;;4931782;28;46117;-83
2023/12/09 13:27:58;;;;;;;1.77;1.58;;;22.00;27.90;;;;;;4902114;28;45280;-80
2023/12/09 13:30:26;;;;;;;1.80;1.40;;;22.00;27.90;;;;;;4937096;28;45750;-85
2023/12/09 13:32:52;;;;;;;2.60;1.70;;;21.90;27.90;;;;;;4946163;28;45093;-85
2023/12/09 13:35:22;;;;;;;2.42;1.85;;;22.00;27.90;;;;;;4899874;28;46197;-82
2023/12/09 13:37:49;;;;;;;1.65;1.48;;;21.90;27.90;;;;;;4943660;28;44998;-81
2023/12/09 13:40:15;;;;;;;1.70;1.50;;;22.00;28.00;;;;;;4942589;28;45161;-80
2023/12/09 13:42:41;;;;;;;2.00;1.60;;;21.90;28.10;;;;;;4913455;28;45652;-80
2023/12/09 13:45:07;;;;;;;2.30;1.90;;;22.00;28.10;;;;;;4917649;28;46234;-90
2023/12/09 13:47:33;;;;;;;1.97;1.70;;;22.00;28.10;;;;;;4928983;28;45789;-80
2023/12/09 13:49:59;;;;;;;1.67;1.57;;;22.00;28.10;;;;;;4912620;28;44782;-80
2023/12/09 13:52:29;;;;;;;2.15;1.60;;;22.00;28.20;;;;;;4932075;28;45281;-82
2023/12/09 13:54:55;;;;;;;2.35;1.73;;;22.00;28.20;;;;;;4916701;28;46142;-81
2023/12/09 13:57:21;;;;;;;1.88;1.60;;;22.00;28.20;;;;;;4929324;28;46208;-84
2023/12/09 13:59:46;;;;;;;2.83;1.80;;;22.00;28.20;;;;;;4960133;28;45397;-81
2023/12/09 14:02:12;;;;;;;2.27;1.77;;;22.00;28.30;;;;;;4924224;28;45138;-83
2023/12/09 14:04:38;;;;;;;1.80;1.50;;;22.00;28.20;;;;;;4929585;28;45859;-84
2023/12/09 14:07:06;;;;;;;2.33;1.70;;;22.00;28.20;;;;;;4939217;28;44915;-80
2023/12/09 14:09:32;;;;;;;1.73;1.63;;;22.00;28.30;;;;;;4961041;28;45333;-80
2023/12/09 14:11:58;;;;;;;1.98;1.77;;;22.10;28.30;;;;;;4927720;28;45291;-82
2023/12/09 14:14:23;;;;;;;2.20;1.70;;;22.10;28.40;;;;;;4914226;28;45604;-83
2023/12/09 14:16:49;;;;;;;2.60;2.00;;;22.10;28.40;;;;;;4942421;28;44840;-80
2023/12/09 14:19:15;;;;;;;2.00;1.80;;;22.10;28.30;;;;;;4946540;28;45410;-84
2023/12/09 14:21:41;;;;;;;2.40;1.73;;;22.10;28.40;;;;;;4943151;28;45255;-81
2023/12/09 14:24:08;;;;;;;1.80;1.70;;;22.10;28.40;;;;;;4957230;28;45308;-80
2023/12/09 14:26:35;;;;;;;2.53;1.90;;;22.20;28.40;;;;;;4929677;28;45683;-80
2023/12/09 14:29:01;;;;;;;2.72;1.90;;;22.20;28.40;;;;;;4932557;28;46445;-87
2023/12/09 14:31:30;;;;;;;1.90;1.70;;;22.20;28.40;;;;;;4888849;28;45694;-84
2023/12/09 14:33:56;;;;;;;2.33;1.85;;;22.20;28.50;;;;;;4926855;28;46212;-81
2023/12/09 14:36:22;;;;;;;2.00;1.70;;;22.20;28.50;;;;;;4939652;28;46052;-80
2023/12/09 14:38:47;;;;;;;2.30;1.90;;;22.20;28.40;;;;;;4959090;28;45437;-81
2023/12/09 14:41:13;;;;;;;1.97;1.70;;;22.30;28.50;;;;;;4936270;28;45128;-86
2023/12/09 14:43:39;;;;;;;2.08;1.88;;;22.30;28.50;;;;;;4939468;28;45386;-87
2023/12/09 14:46:06;;;;;;;2.70;1.90;;;22.30;28.50;;;;;;4942491;28;45474;-80
2023/12/09 14:48:32;;;;;;;2.20;1.88;;;22.30;28.50;;;;;;4928676;28;45436;-80
2023/12/09 14:50:58;;;;;;;2.25;1.77;;;22.30;28.50;;;;;;4921355;28;45633;-84
2023/12/09 14:53:24;;;;;;;2.40;1.90;;;22.40;28.50;;;;;;4936207;28;46068;-81
2023/12/09 14:55:53;;;;;;;2.60;2.10;;;22.40;28.50;;;;;;4938881;28;45396;-84
2023/12/09 14:58:19;;;;;;;2.50;2.00;;;22.40;28.50;;;;;;4945322;28;45275;-81
2023/12/09 15:00:47;;;;;;;2.67;2.03;;;22.40;28.50;;;;;;4923082;28;45137;-81
2023/12/09 15:03:13;;;;;;;2.42;1.98;;;22.40;28.50;;;;;;4941404;28;46521;-80
2023/12/09 15:05:38;;;;;;;3.37;2.13;;;22.50;28.60;;;;;;4945383;28;45359;-81
2023/12/09 15:08:04;;;;;;;2.38;2.08;;;22.50;28.60;;;;;;4958076;28;45298;-80
2023/12/09 15:10:30;;;;;;;2.00;1.80;;;22.50;28.60;;;;;;4910870;28;45310;-81
2023/12/09 15:12:56;;;;;;;2.10;1.90;;;22.50;28.50;;;;;;4976873;28;45332;-84
2023/12/09 15:15:22;;;;;;;2.10;1.90;;;22.50;28.50;;;;;;4900828;28;45285;-83
2023/12/09 15:17:48;;;;;;;2.40;2.08;;;22.60;28.50;;;;;;4960272;28;45423;-84
2023/12/09 15:20:13;;;;;;;2.63;1.98;;;22.60;28.60;;;;;;4940814;28;44857;-84
2023/12/09 15:22:39;;;;;;;2.60;2.13;;;22.60;28.50;;;;;;4895052;28;46356;-82
2023/12/09 15:25:08;;;;;;;3.00;2.30;;;22.70;28.60;;;;;;4913236;28;45060;-91
2023/12/09 15:32:35;;;;;;;3.05;2.28;;;22.70;28.50;;;;;;4899993;28;45639;-82
2023/12/09 15:35:09;;;;;;;3.13;2.43;;;22.80;28.50;;;;;;4846323;29;45558;-87
2023/12/09 15:37:43;;;;;;;2.57;2.37;;;22.80;28.50;;;;;;4916696;28;45426;-79
2023/12/09 15:40:16;;;;;;;2.90;2.40;;;22.80;28.50;;;;;;4960186;28;45279;-88
2023/12/09 15:43:00;;;;;;;2.63;2.40;;;22.90;28.60;;;;;;4962399;28;44842;-83
2023/12/09 15:45:30;;;;;;;3.70;2.47;;;22.80;28.60;;;;;;4943711;28;45373;-82
2023/12/09 15:47:57;;;;;;;2.40;2.20;;;22.90;28.50;;;;;;4961730;28;45521;-81
2023/12/09 15:50:24;;;;;;;2.20;1.93;;;22.90;28.60;;;;;;4917668;28;45582;-80
2023/12/09 15:52:54;;;;;;;2.40;2.20;;;23.00;28.60;;;;;;4946507;28;45222;-85
2023/12/09 15:55:26;;;;;;;2.85;2.17;;;23.00;28.60;;;;;;4943662;28;45498;-82
2023/12/09 15:57:57;;;;;;;2.08;1.88;;;23.00;28.50;;;;;;4945334;28;45563;-83
2023/12/09 16:00:28;;;;;;;2.60;2.40;;;23.00;28.50;;;;;;4956742;28;45492;-83
2023/12/09 16:02:56;;;;;;;2.70;2.40;;;23.10;28.60;;;;;;4956724;28;45634;-84
2023/12/09 16:05:21;;;;;;;2.40;2.20;;;23.10;28.60;;;;;;4942787;28;46201;-80
2023/12/09 16:07:48;;;;;;;2.47;2.13;;;23.10;28.50;;;;;;4943528;28;45097;-85
2023/12/09 16:12:45;;;;;;;2.63;2.10;;;23.20;28.50;;;;;;4945868;28;46421;-39
2023/12/09 16:15:12;;;;;;;2.15;1.90;;;23.20;28.50;;;;;;4960311;28;46622;-39
2023/12/09 16:17:38;;;;;;;3.20;2.10;;;23.20;28.50;;;;;;4950456;28;45547;-40
2023/12/09 16:20:07;;;;;;;2.10;1.90;;;23.30;28.50;;;;;;4964515;28;45561;-38
2023/12/09 16:22:34;;;;;;;2.30;2.00;;;23.30;28.40;;;;;;4953016;28;45299;-38
2023/12/09 16:24:59;;;;;;;2.25;2.00;;;23.30;28.40;;;;;;4973771;28;45395;-39
2023/12/09 16:27:25;;;;;;;2.25;1.80;;;23.30;28.40;;;;;;4967520;28;45220;-40
2023/12/09 16:29:51;;;;;;;2.25;2.00;;;23.40;28.30;;;;;;4973178;28;45481;-41
2023/12/09 16:32:17;;;;;;;2.33;2.00;;;23.40;28.30;;;;;;4952192;28;45466;-40
2023/12/09 16:34:43;;;;;;;2.00;1.80;;;23.50;28.30;;;;;;4959775;28;45441;-40
2023/12/09 16:37:08;;;;;;;2.15;1.88;;;23.50;28.30;;;;;;4948902;28;45593;-39
2023/12/09 16:39:34;;;;;;;1.63;1.52;;;23.50;28.20;;;;;;4970727;28;47613;-39
2023/12/09 16:41:59;;;;;;;2.00;1.80;;;23.50;28.20;;;;;;4960047;28;45592;-39
2023/12/09 16:44:25;;;;;;;1.98;1.77;;;23.60;28.20;;;;;;4977350;28;45455;-40
2023/12/09 16:46:51;;;;;;;2.17;1.70;;;23.60;28.20;;;;;;4929212;28;45489;-39
2023/12/09 16:49:18;;;;;;;1.88;1.77;;;23.60;28.10;;;;;;4973476;28;45565;-40
2023/12/09 16:51:43;;;;;;;1.90;1.80;;;23.60;28.10;;;;;;4970287;28;45735;-39
2023/12/09 16:54:09;;;;;;;2.20;1.90;;;23.70;28.10;;;;;;4978176;28;44857;-40
2023/12/09 16:56:36;;;;;;;1.60;1.50;;;23.70;28.10;;;;;;4955193;28;45327;-39
2023/12/09 16:59:02;;;;;;;2.03;1.67;;;23.70;28.00;;;;;;4950294;28;45762;-39
2023/12/09 17:01:28;;;;;;;2.10;1.60;;;23.70;28.00;;;;;;4947418;28;45596;-39
2023/12/09 17:03:53;;;;;;;2.30;1.87;;;23.70;28.00;;;;;;4950591;28;46086;-39
2023/12/09 17:06:19;;;;;;;2.13;1.80;;;23.80;28.00;;;;;;4961327;28;45175;-39
2023/12/09 17:08:44;;;;;;;1.90;1.70;;;23.80;27.90;;;;;;4967062;28;44923;-39
2023/12/09 17:11:10;;;;;;;2.20;1.83;;;23.80;27.90;;;;;;4952749;28;45513;-39
2023/12/09 17:13:36;;;;;;;1.98;1.80;;;23.80;27.90;;;;;;4973768;28;45799;-39
2023/12/09 17:16:01;;;;;;;1.80;1.70;;;23.80;27.90;;;;;;4948688;28;46835;-40
2023/12/09 17:18:27;;;;;;;2.00;1.80;;;23.80;27.90;;;;;;4967514;28;45556;-39